Time;durP1;ratioP1;P1;durP2;ratioP2;P2;SDS_P1;SDS_P2;PMS_P1;PMS_P2;Temp;Humidity;BMP_temperature;BMP_pressure;BME280_temperature;BME280_humidity;BME280_pressure;Samples;Min_cycle;Max_cycle;Signal;HPM_P1;HPM_P2
2023/10/31 00:00:22;;;;;;;20.65;5.93;;;15.00;99.90;;;;;;5092303;28;20024;-62
2023/10/31 00:02:47;;;;;;;24.95;6.35;;;15.00;99.90;;;;;;5092139;28;20071;-62
2023/10/31 00:05:13;;;;;;;23.38;6.10;;;15.10;99.90;;;;;;5092086;28;20478;-62
2023/10/31 00:07:39;;;;;;;21.70;5.53;;;15.10;99.90;;;;;;5092473;28;20470;-62
2023/10/31 00:10:05;;;;;;;19.40;5.53;;;15.10;99.90;;;;;;5092025;28;20027;-62
2023/10/31 00:12:30;;;;;;;25.30;5.93;;;15.10;99.90;;;;;;5092117;28;20036;-62
2023/10/31 00:14:56;;;;;;;17.30;5.07;;;15.10;99.90;;;;;;5091565;28;20498;-62
2023/10/31 00:17:22;;;;;;;20.48;5.30;;;15.10;99.90;;;;;;5091664;28;20073;-62
2023/10/31 00:19:47;;;;;;;19.67;5.20;;;15.10;99.90;;;;;;5092220;28;20031;-61
2023/10/31 00:22:13;;;;;;;21.20;5.00;;;15.20;99.90;;;;;;5091455;28;20031;-62
2023/10/31 00:24:38;;;;;;;23.30;5.88;;;15.30;99.90;;;;;;5095971;28;20112;-62
2023/10/31 00:27:04;;;;;;;25.85;5.47;;;15.30;99.90;;;;;;5111886;28;20038;-61
2023/10/31 00:29:30;;;;;;;18.33;5.10;;;15.50;99.90;;;;;;5111422;28;20051;-62
2023/10/31 00:31:55;;;;;;;20.30;4.63;;;15.80;99.90;;;;;;5112631;28;20394;-62
2023/10/31 00:34:21;;;;;;;18.13;4.93;;;15.90;99.90;;;;;;5110739;28;20457;-62
2023/10/31 00:36:47;;;;;;;21.13;5.22;;;15.90;99.90;;;;;;5112103;28;20058;-63
2023/10/31 00:39:14;;;;;;;25.73;6.20;;;16.00;99.90;;;;;;5112340;28;20071;-62
2023/10/31 00:41:44;;;;;;;19.02;4.97;;;16.00;99.90;;;;;;5111851;28;20058;-62
2023/10/31 00:44:10;;;;;;;18.70;5.20;;;16.00;99.90;;;;;;5111396;28;20190;-63
2023/10/31 00:46:35;;;;;;;19.15;4.82;;;15.90;99.90;;;;;;5111956;28;20390;-62
2023/10/31 00:49:01;;;;;;;20.20;5.40;;;16.00;99.90;;;;;;5112098;28;20024;-62
2023/10/31 00:51:26;;;;;;;23.88;6.07;;;16.00;99.90;;;;;;5111786;28;20031;-62
2023/10/31 00:53:52;;;;;;;24.25;6.00;;;16.10;99.90;;;;;;5102173;28;20028;-63
2023/10/31 00:56:18;;;;;;;18.30;5.47;;;16.10;99.90;;;;;;5091717;28;20032;-63
2023/10/31 00:58:43;;;;;;;10.30;3.20;;;16.00;99.90;;;;;;5091048;28;20560;-63
2023/10/31 01:01:09;;;;;;;18.33;5.00;;;15.70;99.90;;;;;;5091371;28;20024;-62
2023/10/31 01:03:35;;;;;;;20.42;5.13;;;15.40;99.90;;;;;;5091176;28;20036;-62
2023/10/31 01:06:01;;;;;;;22.63;5.70;;;15.30;99.90;;;;;;5091238;28;20024;-62
2023/10/31 01:08:26;;;;;;;27.33;6.13;;;15.20;99.90;;;;;;5091568;28;20107;-62
2023/10/31 01:10:52;;;;;;;21.88;5.88;;;15.20;99.90;;;;;;5091061;28;20069;-62
2023/10/31 01:13:18;;;;;;;26.35;7.15;;;15.20;99.90;;;;;;5090908;28;20557;-62
2023/10/31 01:15:44;;;;;;;25.13;6.38;;;15.10;99.90;;;;;;5091074;28;20046;-63
2023/10/31 01:18:09;;;;;;;26.60;6.82;;;15.10;99.90;;;;;;5091262;28;20095;-63
2023/10/31 01:20:35;;;;;;;18.58;5.75;;;15.00;99.90;;;;;;5091086;28;20028;-62
2023/10/31 01:23:01;;;;;;;26.55;6.13;;;14.90;99.90;;;;;;5091006;28;20024;-62
2023/10/31 01:25:27;;;;;;;25.00;6.78;;;14.90;99.90;;;;;;5101423;28;20125;-62
2023/10/31 01:27:52;;;;;;;28.75;6.63;;;15.00;99.90;;;;;;5111453;28;20074;-62
2023/10/31 01:30:18;;;;;;;30.45;7.15;;;15.00;99.90;;;;;;5111186;28;20087;-62
2023/10/31 01:32:44;;;;;;;21.27;6.10;;;15.00;99.90;;;;;;5111133;28;20105;-62
2023/10/31 01:35:09;;;;;;;17.98;4.80;;;15.10;99.90;;;;;;5111366;28;20040;-62
2023/10/31 01:37:35;;;;;;;20.90;4.68;;;15.00;99.90;;;;;;5111740;28;20016;-62
2023/10/31 01:40:01;;;;;;;22.48;5.35;;;15.00;99.90;;;;;;5112286;28;20069;-62
2023/10/31 01:42:27;;;;;;;21.70;5.18;;;15.00;99.90;;;;;;5115164;28;20046;-62
2023/10/31 01:44:52;;;;;;;20.20;5.35;;;15.00;99.90;;;;;;5115234;28;20089;-62
2023/10/31 01:47:18;;;;;;;20.85;5.13;;;15.10;99.90;;;;;;5115443;28;20049;-62
2023/10/31 01:49:44;;;;;;;24.65;6.57;;;15.20;99.90;;;;;;5115313;28;20039;-62
2023/10/31 01:52:09;;;;;;;25.67;5.63;;;15.10;99.90;;;;;;5115250;28;20023;-62
2023/10/31 01:54:35;;;;;;;24.77;6.13;;;15.10;99.90;;;;;;5099522;28;20031;-62
2023/10/31 01:57:03;;;;;;;23.00;6.63;;;15.10;99.90;;;;;;5094228;28;20516;-62
2023/10/31 01:59:29;;;;;;;22.27;5.70;;;15.10;99.90;;;;;;5094688;28;20032;-62
2023/10/31 02:01:57;;;;;;;25.27;5.65;;;15.10;99.90;;;;;;5094640;28;20038;-62
2023/10/31 02:04:25;;;;;;;22.65;5.57;;;15.20;99.90;;;;;;5094763;28;20123;-62
2023/10/31 02:06:51;;;;;;;17.63;4.22;;;15.20;99.90;;;;;;5094762;28;20497;-61
2023/10/31 02:09:17;;;;;;;19.52;4.82;;;15.20;99.90;;;;;;5094340;28;20028;-61
2023/10/31 02:11:42;;;;;;;19.25;4.78;;;15.40;99.90;;;;;;5094003;28;20028;-62
2023/10/31 02:14:08;;;;;;;25.63;6.47;;;15.60;99.90;;;;;;5094282;28;20078;-62
2023/10/31 02:16:33;;;;;;;19.15;5.18;;;15.80;99.90;;;;;;5094308;28;20044;-61
2023/10/31 02:18:59;;;;;;;22.23;5.45;;;15.90;99.90;;;;;;5094293;28;20028;-62
2023/10/31 02:21:25;;;;;;;21.38;5.85;;;16.00;99.90;;;;;;5094725;28;20024;-61
2023/10/31 02:23:59;;;;;;;23.65;6.05;;;16.10;99.90;;;;;;5093854;28;20032;-62
2023/10/31 02:26:28;;;;;;;;;;;16.20;99.90;;;;;;5112949;28;20015;-62
2023/10/31 02:28:54;;;;;;;29.45;7.38;;;16.30;99.90;;;;;;5114285;28;19915;-63
2023/10/31 02:31:20;;;;;;;15.77;4.55;;;16.10;99.90;;;;;;5114678;28;20032;-62
2023/10/31 02:33:45;;;;;;;12.90;3.83;;;15.90;99.90;;;;;;5114824;28;20023;-62
2023/10/31 02:36:11;;;;;;;18.88;4.70;;;15.60;99.90;;;;;;5114322;28;20031;-62
2023/10/31 02:38:37;;;;;;;18.45;5.32;;;15.60;99.90;;;;;;5114471;28;20035;-63
2023/10/31 02:41:02;;;;;;;24.38;5.72;;;15.60;99.90;;;;;;5114152;28;20028;-62
2023/10/31 02:43:28;;;;;;;25.50;6.05;;;15.60;99.90;;;;;;5114096;28;20089;-62
2023/10/31 02:45:54;;;;;;;29.10;6.07;;;15.40;99.90;;;;;;5114039;28;20023;-62
2023/10/31 02:48:20;;;;;;;27.67;6.20;;;15.20;99.90;;;;;;5114189;28;20034;-62
2023/10/31 02:50:46;;;;;;;28.92;7.03;;;15.20;99.90;;;;;;5114023;28;20028;-62
2023/10/31 02:53:11;;;;;;;25.92;6.13;;;15.20;99.90;;;;;;5110050;28;20020;-62
2023/10/31 02:55:37;;;;;;;29.38;6.68;;;15.10;99.90;;;;;;5093234;28;20028;-62
2023/10/31 02:58:03;;;;;;;28.88;6.38;;;15.10;99.90;;;;;;5093595;28;20442;-62
2023/10/31 03:00:28;;;;;;;25.25;5.82;;;15.00;99.90;;;;;;5093696;28;20115;-62
2023/10/31 03:02:54;;;;;;;21.77;5.40;;;15.00;99.90;;;;;;5093399;28;20032;-62
2023/10/31 03:05:20;;;;;;;21.95;5.93;;;14.90;99.90;;;;;;5093360;28;20042;-62
2023/10/31 03:07:45;;;;;;;25.95;6.45;;;15.00;99.90;;;;;;5093369;28;20019;-62
2023/10/31 03:10:11;;;;;;;21.98;5.20;;;15.00;99.90;;;;;;5092935;28;20524;-61
2023/10/31 03:12:37;;;;;;;24.05;6.15;;;15.00;99.90;;;;;;5093437;28;20150;-62
2023/10/31 03:15:03;;;;;;;25.27;5.82;;;14.90;99.90;;;;;;5093631;28;20379;-63
2023/10/31 03:17:29;;;;;;;22.73;5.93;;;14.90;99.90;;;;;;5093092;28;20398;-62
2023/10/31 03:19:55;;;;;;;19.52;5.43;;;14.90;99.90;;;;;;5093186;28;20027;-61
2023/10/31 03:22:21;;;;;;;20.17;5.03;;;15.00;99.90;;;;;;5092974;28;20024;-62
2023/10/31 03:24:47;;;;;;;25.65;6.13;;;15.10;99.90;;;;;;5097673;28;20035;-62
2023/10/31 03:27:12;;;;;;;18.77;4.80;;;15.00;99.90;;;;;;5113466;28;20027;-62
2023/10/31 03:29:38;;;;;;;19.58;4.70;;;15.00;99.90;;;;;;5113183;28;20047;-62
2023/10/31 03:32:05;;;;;;;22.73;5.57;;;15.00;99.90;;;;;;5113306;28;20028;-62
2023/10/31 03:34:30;;;;;;;28.55;6.30;;;15.00;99.90;;;;;;5113155;28;20028;-61
2023/10/31 03:36:56;;;;;;;21.73;5.20;;;15.00;99.90;;;;;;5113493;28;20508;-62
2023/10/31 03:39:22;;;;;;;21.80;6.10;;;14.90;99.90;;;;;;5112837;28;20028;-62
2023/10/31 03:41:47;;;;;;;22.45;5.57;;;14.90;99.90;;;;;;5113239;28;20024;-62
2023/10/31 03:44:13;;;;;;;23.02;5.75;;;15.00;99.90;;;;;;5112769;28;20110;-62
2023/10/31 03:46:39;;;;;;;23.02;5.78;;;15.00;99.90;;;;;;5112695;28;20512;-62
2023/10/31 03:49:07;;;;;;;28.90;6.38;;;15.00;99.90;;;;;;5112938;28;20027;-62
2023/10/31 03:51:34;;;;;;;20.05;6.05;;;15.00;99.90;;;;;;5113226;28;20028;-62
2023/10/31 03:53:59;;;;;;;22.55;5.32;;;15.30;99.90;;;;;;5101622;28;20107;-62
2023/10/31 03:56:25;;;;;;;22.23;5.45;;;15.60;99.90;;;;;;5092793;28;20104;-62
2023/10/31 03:58:50;;;;;;;24.80;5.53;;;15.80;99.90;;;;;;5092404;28;20502;-62
2023/10/31 04:01:16;;;;;;;25.27;6.00;;;15.90;99.90;;;;;;5092427;28;20063;-62
2023/10/31 04:03:42;;;;;;;26.55;5.97;;;15.90;99.90;;;;;;5091410;28;20039;-62
2023/10/31 04:06:08;;;;;;;20.60;5.57;;;16.10;99.90;;;;;;5092127;28;20028;-62
2023/10/31 04:08:34;;;;;;;21.98;5.85;;;16.20;99.90;;;;;;5092474;28;20082;-62
2023/10/31 04:10:59;;;;;;;23.92;6.10;;;16.20;99.90;;;;;;5092084;28;20103;-62
2023/10/31 04:13:25;;;;;;;22.42;5.60;;;16.20;99.90;;;;;;5092122;28;20031;-62
2023/10/31 04:15:51;;;;;;;19.75;5.18;;;16.30;99.90;;;;;;5091967;28;20024;-62
2023/10/31 04:18:16;;;;;;;22.33;6.43;;;16.30;99.90;;;;;;5092086;28;20032;-62
2023/10/31 04:20:42;;;;;;;18.98;5.40;;;16.20;99.90;;;;;;5091940;28;20085;-62
2023/10/31 04:23:08;;;;;;;26.08;6.13;;;16.20;99.90;;;;;;5091354;28;20039;-62
2023/10/31 04:25:34;;;;;;;19.42;5.30;;;16.20;99.90;;;;;;5103283;28;20031;-61
2023/10/31 04:28:00;;;;;;;20.50;5.40;;;15.90;99.90;;;;;;5112608;28;20031;-62
2023/10/31 04:30:26;;;;;;;24.85;6.00;;;15.80;99.90;;;;;;5092616;28;20091;-62
2023/10/31 04:32:52;;;;;;;18.73;4.85;;;15.60;99.90;;;;;;5091865;28;20047;-62
2023/10/31 04:35:18;;;;;;;20.58;5.40;;;15.50;99.90;;;;;;5091580;28;20020;-62
2023/10/31 04:37:44;;;;;;;24.83;6.50;;;15.40;99.90;;;;;;5091695;28;20027;-62
2023/10/31 04:40:10;;;;;;;22.75;5.50;;;15.30;99.90;;;;;;5091744;28;20020;-62
2023/10/31 04:42:38;;;;;;;23.30;5.60;;;15.30;99.90;;;;;;5091662;28;20081;-62
2023/10/31 04:45:04;;;;;;;23.35;5.78;;;15.20;99.90;;;;;;5091881;28;20046;-62
2023/10/31 04:47:30;;;;;;;25.67;6.05;;;15.20;99.90;;;;;;5091494;28;20120;-62
2023/10/31 04:49:56;;;;;;;26.25;6.15;;;15.20;99.90;;;;;;5091566;28;20103;-62
2023/10/31 04:52:22;;;;;;;22.63;5.80;;;15.20;99.90;;;;;;5091631;28;20107;-62
2023/10/31 04:54:48;;;;;;;22.00;5.57;;;15.30;99.90;;;;;;5091296;28;20028;-63
2023/10/31 04:57:13;;;;;;;18.60;4.78;;;15.30;99.90;;;;;;5091346;28;20489;-62
2023/10/31 04:59:39;;;;;;;22.42;5.40;;;15.20;99.90;;;;;;5091419;28;20024;-62
2023/10/31 05:02:05;;;;;;;22.48;6.05;;;15.20;99.90;;;;;;5091349;28;20456;-62
2023/10/31 05:04:30;;;;;;;25.73;6.28;;;15.20;99.90;;;;;;5091109;28;20458;-62
2023/10/31 05:06:56;;;;;;;25.65;6.03;;;15.10;99.90;;;;;;5090756;28;20474;-62
2023/10/31 05:09:23;;;;;;;23.50;5.70;;;15.10;99.90;;;;;;5091396;28;20035;-62
2023/10/31 05:11:48;;;;;;;29.13;7.28;;;15.10;99.90;;;;;;5091139;28;20024;-63
2023/10/31 05:14:14;;;;;;;25.40;6.22;;;15.10;99.90;;;;;;5091218;28;20016;-62
2023/10/31 05:16:41;;;;;;;22.02;5.40;;;15.10;99.90;;;;;;5091222;28;20020;-62
2023/10/31 05:19:07;;;;;;;22.30;5.70;;;15.10;99.90;;;;;;5091103;28;20028;-62
2023/10/31 05:21:33;;;;;;;23.92;5.38;;;15.00;99.90;;;;;;5090678;28;20029;-62
2023/10/31 05:23:58;;;;;;;23.48;5.55;;;15.10;99.90;;;;;;5091126;28;20082;-62
2023/10/31 05:26:24;;;;;;;22.42;6.13;;;15.20;99.90;;;;;;5091344;28;20081;-62
2023/10/31 05:28:50;;;;;;;24.15;5.95;;;15.20;99.90;;;;;;5090961;28;20093;-62
2023/10/31 05:31:17;;;;;;;21.75;5.35;;;15.20;99.90;;;;;;5091074;28;20028;-62
2023/10/31 05:33:43;;;;;;;25.33;5.95;;;15.40;99.90;;;;;;5090850;28;20039;-62
2023/10/31 05:36:24;;;;;;;24.58;6.10;;;15.70;99.90;;;;;;5090918;28;20028;-62
2023/10/31 05:38:50;;;;;;;21.67;5.45;;;15.80;99.90;;;;;;5090988;28;20111;-63
2023/10/31 05:41:16;;;;;;;27.80;6.28;;;15.90;99.90;;;;;;5091372;28;20653;-62
2023/10/31 05:43:42;;;;;;;27.45;6.70;;;16.10;99.90;;;;;;5090638;28;20086;-62
2023/10/31 05:46:12;;;;;;;24.13;5.30;;;16.20;99.90;;;;;;5091040;28;20025;-62
2023/10/31 05:48:39;;;;;;;26.60;6.03;;;16.10;99.90;;;;;;5091066;28;20496;-62
2023/10/31 05:51:11;;;;;;;22.52;5.35;;;16.20;99.90;;;;;;5091028;28;20020;-62
2023/10/31 05:53:38;;;;;;;22.50;5.60;;;16.20;99.90;;;;;;5083605;28;20029;-63
2023/10/31 05:56:04;;;;;;;21.70;5.10;;;16.10;99.90;;;;;;5070651;28;20151;-62
2023/10/31 05:58:30;;;;;;;20.75;5.35;;;16.10;99.90;;;;;;5070599;28;20035;-63
2023/10/31 06:00:56;;;;;;;20.50;5.57;;;16.10;99.90;;;;;;5070563;28;20025;-62
2023/10/31 06:03:21;;;;;;;18.95;4.50;;;16.00;99.90;;;;;;5070276;28;20044;-62
2023/10/31 06:05:47;;;;;;;20.17;4.88;;;15.80;99.90;;;;;;5070490;28;20378;-62
2023/10/31 06:08:13;;;;;;;22.40;5.68;;;15.60;99.90;;;;;;5070783;28;20025;-62
2023/10/31 06:10:38;;;;;;;21.52;5.30;;;15.60;99.90;;;;;;5070636;28;20031;-62
2023/10/31 06:13:04;;;;;;;22.50;5.90;;;15.40;99.90;;;;;;5070551;28;20108;-62
2023/10/31 06:15:30;;;;;;;24.83;5.70;;;15.40;99.90;;;;;;5070315;28;20033;-62
2023/10/31 06:17:56;;;;;;;25.80;6.22;;;15.30;99.90;;;;;;5070122;28;20219;-62
2023/10/31 06:20:22;;;;;;;21.60;5.57;;;15.20;99.90;;;;;;5070417;28;20032;-62
2023/10/31 06:22:47;;;;;;;23.15;5.72;;;15.20;99.90;;;;;;5070766;28;20017;-62
2023/10/31 06:25:13;;;;;;;24.60;4.97;;;15.20;99.90;;;;;;5078842;28;20111;-62
2023/10/31 06:27:39;;;;;;;18.25;4.72;;;15.20;99.90;;;;;;5094026;28;20428;-62
2023/10/31 06:30:05;;;;;;;20.45;5.22;;;15.20;99.90;;;;;;5110482;28;20519;-62
2023/10/31 06:32:30;;;;;;;23.35;5.65;;;15.20;99.90;;;;;;5114110;28;20020;-62
2023/10/31 06:34:56;;;;;;;24.30;5.43;;;15.20;99.90;;;;;;5114705;28;20413;-62
2023/10/31 06:37:22;;;;;;;21.48;4.72;;;15.20;99.90;;;;;;5114453;28;20031;-62
2023/10/31 06:39:47;;;;;;;20.13;5.03;;;15.20;99.90;;;;;;5114388;28;20032;-62
2023/10/31 06:42:13;;;;;;;16.15;4.03;;;15.20;99.90;;;;;;5114272;28;20028;-62
2023/10/31 06:44:38;;;;;;;14.10;3.60;;;15.20;99.90;;;;;;5114168;28;20031;-62
2023/10/31 06:47:04;;;;;;;10.20;2.67;;;15.20;99.90;;;;;;5113688;28;20024;-62
2023/10/31 06:49:30;;;;;;;8.88;2.60;;;15.10;99.90;;;;;;5114106;28;20031;-62
2023/10/31 06:51:56;;;;;;;8.15;2.40;;;15.00;99.90;;;;;;5114473;28;20085;-62
2023/10/31 06:54:21;;;;;;;12.48;2.58;;;15.00;99.90;;;;;;5100068;28;20039;-62
2023/10/31 06:56:47;;;;;;;12.85;2.83;;;14.90;99.90;;;;;;5093625;28;20020;-62
2023/10/31 06:59:13;;;;;;;10.82;2.85;;;14.90;99.90;;;;;;5093754;28;20066;-62
2023/10/31 07:01:39;;;;;;;8.57;2.50;;;14.90;99.90;;;;;;5093078;28;20024;-62
2023/10/31 07:04:04;;;;;;;9.30;2.38;;;14.80;99.90;;;;;;5093039;28;20573;-62
2023/10/31 07:06:30;;;;;;;12.90;2.90;;;14.80;99.90;;;;;;5093643;28;20107;-62
2023/10/31 07:08:57;;;;;;;12.05;3.20;;;14.70;99.90;;;;;;5093323;28;20451;-62
2023/10/31 07:11:23;;;;;;;11.32;3.05;;;14.80;99.90;;;;;;5093229;28;20082;-62
2023/10/31 07:13:48;;;;;;;13.73;3.78;;;14.90;99.90;;;;;;5093051;28;20028;-62
2023/10/31 07:16:14;;;;;;;13.63;4.43;;;15.00;99.90;;;;;;5092768;28;20110;-63
2023/10/31 07:18:40;;;;;;;15.57;4.07;;;15.20;99.90;;;;;;5093497;28;20066;-62
2023/10/31 07:21:06;;;;;;;13.32;3.80;;;15.50;99.90;;;;;;5092975;28;20066;-62
2023/10/31 07:23:31;;;;;;;14.07;3.90;;;15.50;99.90;;;;;;5092798;28;20043;-63
2023/10/31 07:25:57;;;;;;;17.17;4.03;;;15.60;99.90;;;;;;5107665;28;20038;-62
2023/10/31 07:28:23;;;;;;;17.20;4.40;;;15.60;99.90;;;;;;5113625;28;20055;-62
2023/10/31 07:30:50;;;;;;;17.73;4.40;;;15.80;99.90;;;;;;5112910;28;20035;-62
2023/10/31 07:33:15;;;;;;;21.67;5.20;;;15.90;99.90;;;;;;5113280;28;20050;-62
2023/10/31 07:35:41;;;;;;;17.42;4.70;;;15.90;99.90;;;;;;5113109;28;20474;-61
2023/10/31 07:38:07;;;;;;;19.33;5.10;;;15.90;99.90;;;;;;5112458;28;20023;-62
2023/10/31 07:40:33;;;;;;;19.95;5.03;;;15.90;99.90;;;;;;5113086;28;20024;-62
2023/10/31 07:42:59;;;;;;;18.85;5.32;;;16.10;99.90;;;;;;5112690;28;20023;-61
2023/10/31 07:45:24;;;;;;;21.10;4.88;;;16.20;99.90;;;;;;5112981;28;20027;-62
2023/10/31 07:47:50;;;;;;;22.33;5.47;;;16.20;99.90;;;;;;5113102;28;20078;-62
2023/10/31 07:50:15;;;;;;;21.83;5.30;;;16.10;99.90;;;;;;5112940;28;20074;-62
2023/10/31 07:52:43;;;;;;;22.05;5.95;;;16.00;99.90;;;;;;5113366;28;20026;-62
2023/10/31 07:55:11;;;;;;;19.83;5.20;;;15.90;99.90;;;;;;5112631;28;20028;-63
2023/10/31 07:57:37;;;;;;;22.73;5.05;;;15.80;99.90;;;;;;5112665;28;20023;-62
2023/10/31 08:00:02;;;;;;;17.88;4.97;;;15.80;99.90;;;;;;5112515;28;20051;-62
2023/10/31 08:02:28;;;;;;;23.42;5.45;;;15.80;99.90;;;;;;5112862;28;20028;-62
2023/10/31 08:04:54;;;;;;;20.33;4.90;;;15.80;99.90;;;;;;5112893;28;20485;-62
2023/10/31 08:07:19;;;;;;;17.70;5.10;;;15.70;99.90;;;;;;5112814;28;20019;-62
2023/10/31 08:09:45;;;;;;;23.98;5.93;;;15.70;99.90;;;;;;5112477;28;20481;-62
2023/10/31 08:12:11;;;;;;;17.80;4.80;;;15.70;99.90;;;;;;5112447;28;20024;-62
2023/10/31 08:14:36;;;;;;;19.75;5.38;;;15.70;99.90;;;;;;5112120;28;20481;-62
2023/10/31 08:17:02;;;;;;;18.77;4.78;;;15.80;99.90;;;;;;5112646;28;20073;-62
2023/10/31 08:19:28;;;;;;;16.17;4.63;;;15.90;99.90;;;;;;5112397;28;20401;-62
2023/10/31 08:21:53;;;;;;;17.80;4.88;;;15.90;99.90;;;;;;5112408;28;20490;-63
2023/10/31 08:24:19;;;;;;;14.45;4.20;;;15.80;99.90;;;;;;5112365;28;20040;-63
2023/10/31 08:26:45;;;;;;;16.25;4.00;;;15.70;99.90;;;;;;5112152;28;20062;-62
2023/10/31 08:29:10;;;;;;;16.85;4.35;;;15.60;99.90;;;;;;5111687;28;20058;-62
2023/10/31 08:31:36;;;;;;;19.08;5.10;;;15.50;99.90;;;;;;5112102;28;20030;-62
2023/10/31 08:34:01;;;;;;;19.35;5.10;;;15.50;99.90;;;;;;5112128;28;20089;-62
2023/10/31 08:36:28;;;;;;;19.05;5.13;;;15.50;99.90;;;;;;5111954;28;20080;-63
2023/10/31 08:38:54;;;;;;;17.38;4.20;;;15.40;99.90;;;;;;5112323;28;20504;-62
2023/10/31 08:41:21;;;;;;;17.58;4.30;;;15.40;99.90;;;;;;5111901;28;20102;-62
2023/10/31 08:43:47;;;;;;;17.17;4.57;;;15.50;99.90;;;;;;5111578;28;20035;-62
2023/10/31 08:46:13;;;;;;;20.92;5.45;;;15.60;99.90;;;;;;5111866;28;20550;-62
2023/10/31 08:48:39;;;;;;;23.23;4.88;;;15.60;99.90;;;;;;5111624;28;20039;-62
2023/10/31 08:51:04;;;;;;;21.98;5.00;;;15.60;99.90;;;;;;5111982;28;20016;-62
2023/10/31 08:53:30;;;;;;;22.20;5.15;;;15.60;99.90;;;;;;5093667;28;20027;-62
2023/10/31 08:55:56;;;;;;;19.60;4.90;;;15.80;99.90;;;;;;5111645;28;20027;-62
2023/10/31 08:58:22;;;;;;;18.45;5.28;;;15.90;99.90;;;;;;5111826;28;20027;-62
2023/10/31 09:00:47;;;;;;;20.77;4.40;;;16.00;99.90;;;;;;5111757;28;20104;-62
2023/10/31 09:03:13;;;;;;;24.20;5.03;;;16.20;99.90;;;;;;5111610;28;20023;-62
2023/10/31 09:05:40;;;;;;;21.08;4.65;;;16.30;99.90;;;;;;5111538;28;20110;-62
2023/10/31 09:08:06;;;;;;;18.85;4.65;;;16.30;99.90;;;;;;5111658;28;20099;-62
2023/10/31 09:10:33;;;;;;;20.95;4.55;;;16.30;99.90;;;;;;5111394;28;20102;-62
2023/10/31 09:12:59;;;;;;;17.67;4.85;;;16.40;99.90;;;;;;5111047;28;20437;-62
2023/10/31 09:15:24;;;;;;;13.40;3.42;;;16.40;99.90;;;;;;5111830;28;20028;-62
2023/10/31 09:17:50;;;;;;;14.68;3.97;;;16.40;99.90;;;;;;5111456;28;20382;-61
2023/10/31 09:20:16;;;;;;;16.15;3.83;;;16.60;99.90;;;;;;5111311;28;20772;-62
2023/10/31 09:22:41;;;;;;;15.38;3.35;;;16.80;99.90;;;;;;5111603;28;20500;-61
2023/10/31 09:25:07;;;;;;;9.43;2.30;;;16.70;99.90;;;;;;5111033;28;20046;-62
2023/10/31 09:27:33;;;;;;;9.77;2.70;;;16.70;99.90;;;;;;5111479;28;20024;-61
2023/10/31 09:29:59;;;;;;;11.68;3.63;;;16.50;99.90;;;;;;5111228;28;20056;-62
2023/10/31 09:32:24;;;;;;;11.43;3.00;;;16.50;99.90;;;;;;5111321;28;20048;-61
2023/10/31 09:34:50;;;;;;;11.10;2.67;;;16.40;99.90;;;;;;5111746;28;20446;-62
2023/10/31 09:37:15;;;;;;;11.10;3.28;;;16.40;99.90;;;;;;5111485;28;20024;-62
2023/10/31 09:39:41;;;;;;;12.77;3.42;;;16.50;99.90;;;;;;5111234;28;20462;-62
2023/10/31 09:42:07;;;;;;;14.82;3.80;;;16.50;99.90;;;;;;5111153;28;20405;-61
2023/10/31 09:44:33;;;;;;;17.65;4.40;;;16.50;99.90;;;;;;5110923;28;20431;-62
2023/10/31 09:47:00;;;;;;;17.10;3.85;;;16.60;99.90;;;;;;5111200;28;20104;-62
2023/10/31 09:49:28;;;;;;;16.48;4.22;;;16.60;99.90;;;;;;5111510;28;20035;-62
2023/10/31 09:51:54;;;;;;;21.75;4.80;;;16.60;99.90;;;;;;5111719;28;20031;-62
2023/10/31 09:54:21;;;;;;;17.77;4.22;;;16.60;99.90;;;;;;5097990;28;20036;-61
2023/10/31 09:56:46;;;;;;;22.88;4.63;;;16.70;99.90;;;;;;5090611;28;20667;-62
2023/10/31 09:59:14;;;;;;;18.95;4.55;;;16.60;99.90;;;;;;5090649;28;20036;-62
2023/10/31 10:01:40;;;;;;;17.25;4.68;;;16.60;99.90;;;;;;5092904;28;20383;-62
2023/10/31 10:04:06;;;;;;;20.65;4.78;;;16.70;99.90;;;;;;5094904;28;20043;-62
2023/10/31 10:06:32;;;;;;;20.77;4.60;;;16.70;99.90;;;;;;5094487;28;20028;-62
2023/10/31 10:08:57;;;;;;;17.33;4.82;;;16.70;99.90;;;;;;5094356;28;20024;-62
2023/10/31 10:11:24;;;;;;;19.25;4.38;;;17.00;99.90;;;;;;5075982;28;20087;-62
2023/10/31 10:13:52;;;;;;;20.70;4.85;;;17.10;99.90;;;;;;5094805;28;20175;-62
2023/10/31 10:16:32;;;;;;;15.95;3.95;;;17.10;99.90;;;;;;5094183;28;20027;-62
2023/10/31 10:19:13;;;;;;;15.40;4.13;;;17.00;99.90;;;;;;5094254;28;20553;-62
2023/10/31 10:21:52;;;;;;;15.30;4.05;;;16.80;99.90;;;;;;5094076;28;20071;-62
2023/10/31 10:24:19;;;;;;;17.35;3.80;;;16.70;99.90;;;;;;5094260;28;20042;-62
2023/10/31 10:26:46;;;;;;;14.82;3.75;;;16.60;99.90;;;;;;5114640;28;20481;-62
2023/10/31 10:29:12;;;;;;;14.13;3.60;;;16.70;99.90;;;;;;5096019;28;20048;-62
2023/10/31 10:31:37;;;;;;;13.23;3.47;;;16.80;99.90;;;;;;5114754;28;20069;-62
2023/10/31 10:34:03;;;;;;;12.30;3.22;;;16.80;99.90;;;;;;5114386;28;20047;-61
2023/10/31 10:36:32;;;;;;;17.20;4.10;;;16.90;99.90;;;;;;5114386;28;20103;-61
2023/10/31 10:38:58;;;;;;;17.27;4.45;;;17.20;99.90;;;;;;5114391;28;20474;-62
2023/10/31 10:41:28;;;;;;;18.35;4.22;;;17.50;99.90;;;;;;5114344;28;20517;-62
2023/10/31 10:44:07;;;;;;;16.60;4.55;;;17.50;99.90;;;;;;5114041;28;20390;-61
2023/10/31 10:46:36;;;;;;;15.05;4.05;;;17.80;99.90;;;;;;5114120;28;20035;-62
2023/10/31 10:49:06;;;;;;;16.08;4.13;;;18.00;99.90;;;;;;5114032;28;20027;-61
2023/10/31 10:51:45;;;;;;;15.38;3.90;;;18.10;99.90;;;;;;5114138;28;20076;-62
2023/10/31 10:54:33;;;;;;;19.40;4.38;;;18.10;99.90;;;;;;5102246;28;20035;-62
2023/10/31 10:57:09;;;;;;;17.58;4.13;;;18.20;99.90;;;;;;5093805;28;20154;-62
2023/10/31 10:59:52;;;;;;;15.85;3.63;;;18.30;99.90;;;;;;5094143;28;20020;-62
2023/10/31 11:02:18;;;;;;;10.45;2.78;;;18.30;99.90;;;;;;5093846;28;20055;-62
2023/10/31 11:04:44;;;;;;;10.50;2.20;;;17.90;99.90;;;;;;5075078;28;20036;-62
2023/10/31 11:07:10;;;;;;;12.88;3.35;;;17.50;99.90;;;;;;5093255;28;20028;-62
2023/10/31 11:09:38;;;;;;;9.73;2.65;;;17.20;99.90;;;;;;5092854;28;20487;-62
2023/10/31 11:12:04;;;;;;;11.68;3.05;;;16.90;99.90;;;;;;5093063;28;20101;-62
2023/10/31 11:14:31;;;;;;;11.98;3.00;;;16.70;99.90;;;;;;5093105;28;20035;-61
2023/10/31 11:17:03;;;;;;;10.60;2.92;;;16.50;99.90;;;;;;5093195;28;20038;-61
2023/10/31 11:19:30;;;;;;;13.57;3.13;;;16.40;99.90;;;;;;5093087;28;20506;-62
2023/10/31 11:22:00;;;;;;;12.23;3.53;;;16.30;99.90;;;;;;5092773;28;20055;-64
2023/10/31 11:24:31;;;;;;;17.83;4.15;;;16.30;99.90;;;;;;5094958;28;20039;-62
2023/10/31 11:27:02;;;;;;;14.95;3.55;;;16.40;99.90;;;;;;5113485;28;20099;-61
2023/10/31 11:29:27;;;;;;;15.60;3.63;;;16.60;99.90;;;;;;5113293;28;20052;-62
2023/10/31 11:31:56;;;;;;;14.48;3.65;;;16.80;99.90;;;;;;5113681;28;20035;-61
2023/10/31 11:34:22;;;;;;;13.90;3.63;;;16.80;99.90;;;;;;5113263;28;20578;-61
2023/10/31 11:36:48;;;;;;;18.70;4.43;;;16.80;99.90;;;;;;5113015;28;20505;-62
2023/10/31 11:39:17;;;;;;;15.27;4.03;;;16.90;99.90;;;;;;5113235;28;20015;-62
2023/10/31 11:41:50;;;;;;;17.65;4.75;;;16.90;99.90;;;;;;5095279;28;20028;-61
2023/10/31 11:44:17;;;;;;;17.90;4.40;;;17.00;99.90;;;;;;5112887;28;20036;-61
2023/10/31 11:46:47;;;;;;;18.60;4.50;;;17.10;99.90;;;;;;5113222;28;20031;-61
2023/10/31 11:49:13;;;;;;;17.45;4.15;;;17.20;99.90;;;;;;5112911;28;20051;-62
2023/10/31 11:51:39;;;;;;;19.10;5.20;;;17.30;99.90;;;;;;5112688;28;20058;-62
2023/10/31 11:54:08;;;;;;;23.02;5.00;;;17.30;99.90;;;;;;5112786;28;20032;-62
2023/10/31 11:56:34;;;;;;;19.95;5.25;;;17.40;99.90;;;;;;5112739;28;20024;-61
2023/10/31 11:59:02;;;;;;;23.88;5.38;;;17.50;99.90;;;;;;5094596;28;20109;-62
2023/10/31 12:01:28;;;;;;;23.52;5.15;;;17.70;99.90;;;;;;5113162;28;20015;-61
2023/10/31 12:03:54;;;;;;;23.83;5.60;;;17.80;99.90;;;;;;5094273;28;20040;-62
2023/10/31 12:06:21;;;;;;;24.38;5.38;;;17.80;99.90;;;;;;5112400;28;20504;-62
2023/10/31 12:08:48;;;;;;;19.98;5.47;;;17.90;99.90;;;;;;5112761;28;20020;-61
2023/10/31 12:11:22;;;;;;;17.35;4.70;;;17.90;99.90;;;;;;5112489;28;20016;-62
2023/10/31 12:13:58;;;;;;;16.13;4.28;;;17.90;99.90;;;;;;5112819;28;20016;-61
2023/10/31 12:16:28;;;;;;;17.88;4.45;;;18.00;99.90;;;;;;5112487;28;20024;-62
2023/10/31 12:19:02;;;;;;;15.93;3.83;;;18.30;99.90;;;;;;5112214;28;20028;-62
2023/10/31 12:21:43;;;;;;;;;;;18.30;99.90;;;;;;5112319;28;20528;-62
2023/10/31 12:24:12;;;;;;;11.65;3.58;;;18.20;99.90;;;;;;5111987;28;20369;-63
2023/10/31 12:26:38;;;;;;;13.20;3.72;;;17.70;99.90;;;;;;5112162;28;20024;-62
2023/10/31 12:29:22;;;;;;;11.88;3.33;;;17.30;99.90;;;;;;5112048;28;20135;-62
2023/10/31 12:31:51;;;;;;;11.73;3.13;;;17.30;99.90;;;;;;5112129;28;20550;-62
2023/10/31 12:34:19;;;;;;;8.23;2.67;;;17.40;99.90;;;;;;5112018;28;20043;-62